createdAt,value
2023-04-15T00:01:14.630Z,98837.13
2023-04-15T00:03:42.314Z,98835.47
2023-04-15T00:06:12.036Z,98836.72
2023-04-15T00:08:39.474Z,98824.91
2023-04-15T00:11:07.364Z,98824.69
2023-04-15T00:13:34.826Z,98818.06
2023-04-15T00:16:02.822Z,98823.84
2023-04-15T00:18:30.221Z,98821.78
2023-04-15T00:20:58.043Z,98823.69
2023-04-15T00:23:27.550Z,98824.91
2023-04-15T00:25:55.387Z,98825.13
2023-04-15T00:28:22.650Z,98824.09
2023-04-15T00:30:50.924Z,98826.97
2023-04-15T00:33:18.410Z,98826.56
2023-04-15T00:35:46.182Z,98822.03
2023-04-15T00:38:13.560Z,98819.09
2023-04-15T00:40:43.639Z,98819.34
2023-04-15T00:43:11.040Z,98820.38
2023-04-15T00:45:39.029Z,98814.16
2023-04-15T00:48:06.557Z,98823.28
2023-04-15T00:50:34.324Z,98827.78
2023-04-15T00:53:01.702Z,98824.50
2023-04-15T00:55:29.428Z,98820.38
2023-04-15T00:57:58.515Z,98824.94
2023-04-15T01:00:26.619Z,98820.34
2023-04-15T01:02:54.242Z,98829.47
2023-04-15T01:05:22.349Z,98824.91
2023-04-15T01:07:49.888Z,98825.53
2023-04-15T01:10:17.842Z,98822.00
2023-04-15T01:12:45.605Z,98819.34
2023-04-15T01:15:15.465Z,98827.63
2023-04-15T01:17:42.985Z,98822.22
2023-04-15T01:20:11.033Z,98824.69
2023-04-15T01:22:38.447Z,98830.69
2023-04-15T01:25:10.104Z,98827.81
2023-04-15T01:27:41.826Z,98823.66
2023-04-15T01:30:10.653Z,98812.91
2023-04-15T01:32:38.368Z,98807.34
2023-04-15T01:35:07.111Z,98813.31
2023-04-15T01:37:34.662Z,98820.78
2023-04-15T01:40:02.589Z,98818.09
2023-04-15T01:42:29.981Z,98825.31
2023-04-15T01:44:59.256Z,98820.38
2023-04-15T01:47:26.737Z,98827.19
2023-04-15T01:49:54.621Z,98826.16
2023-04-15T01:52:21.874Z,98836.50
2023-04-15T01:54:49.856Z,98840.22
2023-04-15T01:57:17.275Z,98841.03
2023-04-15T01:59:45.096Z,98830.06
2023-04-15T02:02:14.035Z,98835.66
2023-04-15T02:04:42.080Z,98831.34
2023-04-15T02:07:09.440Z,98830.47
2023-04-15T02:09:37.239Z,98832.53
2023-04-15T02:12:04.790Z,98827.38
2023-04-15T02:14:32.564Z,98832.97
2023-04-15T02:16:59.910Z,98836.50
2023-04-15T02:19:29.706Z,98834.63
2023-04-15T02:21:57.071Z,98842.72
2023-04-15T02:24:24.795Z,98838.75
2023-04-15T02:26:52.317Z,98836.50
2023-04-15T02:29:20.150Z,98840.00
2023-04-15T02:31:47.692Z,98841.63
2023-04-15T02:34:15.681Z,98847.44
2023-04-15T02:36:44.477Z,98847.00
2023-04-15T02:39:12.185Z,98850.75
2023-04-15T02:41:39.509Z,98847.63
2023-04-15T02:44:07.352Z,98837.09
2023-04-15T02:46:35.045Z,98844.34
2023-04-15T02:49:03.024Z,98844.97
2023-04-15T02:51:31.089Z,98849.91
2023-04-15T02:54:00.390Z,98853.44
2023-04-15T02:56:27.844Z,98850.75
2023-04-15T02:58:55.669Z,98845.97
2023-04-15T03:01:23.049Z,98849.69
2023-04-15T03:03:51.071Z,98857.53
2023-04-15T03:06:18.789Z,98854.84
2023-04-15T03:08:46.643Z,98863.75
2023-04-15T03:11:15.506Z,98865.16
2023-04-15T03:13:42.826Z,98856.06
2023-04-15T03:16:11.291Z,98865.97
2023-04-15T03:18:41.311Z,98874.88
2023-04-15T03:21:11.663Z,98882.06
2023-04-15T03:23:39.347Z,98887.16
2023-04-15T03:26:07.197Z,98886.06
2023-04-15T03:28:35.983Z,98889.97
2023-04-15T03:31:03.775Z,98892.41
2023-04-15T03:33:31.189Z,98892.81
2023-04-15T03:35:58.990Z,98893.59
2023-04-15T03:38:26.358Z,98889.25
2023-04-15T03:40:54.235Z,98893.78
2023-04-15T03:43:21.623Z,98905.72
2023-04-15T03:45:51.157Z,98905.97
2023-04-15T03:48:18.824Z,98916.53
2023-04-15T03:50:46.830Z,98921.03
2023-04-15T03:53:14.380Z,98925.88
2023-04-15T03:55:42.557Z,98931.22
2023-04-15T03:58:09.959Z,98942.50
2023-04-15T04:00:38.034Z,98942.56
2023-04-15T04:03:07.054Z,98948.63
2023-04-15T04:05:35.107Z,98945.88
2023-04-15T04:08:02.506Z,98953.25
2023-04-15T04:10:30.389Z,98954.31
2023-04-15T04:12:58.279Z,98953.66
2023-04-15T04:15:29.175Z,98952.91
2023-04-15T04:17:56.710Z,98972.72
2023-04-15T04:20:26.346Z,98962.22
2023-04-15T04:22:53.754Z,98960.72
2023-04-15T04:25:22.000Z,98963.59
2023-04-15T04:27:49.410Z,98962.78
2023-04-15T04:30:17.622Z,98967.44
2023-04-15T04:32:45.305Z,98975.38
2023-04-15T04:35:13.064Z,98974.34
2023-04-15T04:37:42.114Z,98974.31
2023-04-15T04:40:10.906Z,98978.09
2023-04-15T04:42:39.967Z,98987.25
2023-04-15T04:45:08.788Z,98985.88
2023-04-15T04:47:36.297Z,98993.84
2023-04-15T04:50:04.661Z,98992.06
2023-04-15T04:52:35.180Z,98997.75
2023-04-15T04:55:05.361Z,98993.75
2023-04-15T04:57:32.955Z,99008.91
2023-04-15T05:00:01.346Z,99012.50
2023-04-15T05:02:28.744Z,99018.06
2023-04-15T05:04:56.885Z,99021.38
2023-04-15T05:07:24.565Z,99030.69
2023-04-15T05:09:52.427Z,99029.38
2023-04-15T05:12:21.310Z,99029.44
2023-04-15T05:14:51.780Z,99033.91
2023-04-15T05:17:19.333Z,99022.25
2023-04-15T05:19:47.149Z,99026.22
2023-04-15T05:22:14.637Z,99028.31
2023-04-15T05:24:42.621Z,99036.72
2023-04-15T05:27:10.010Z,99036.00
2023-04-15T05:29:39.103Z,99040.41
2023-04-15T05:32:06.948Z,99038.03
2023-04-15T05:34:35.502Z,99049.25
2023-04-15T05:37:04.709Z,99040.97
2023-04-15T05:39:32.548Z,99036.25
2023-04-15T05:42:00.159Z,99046.59
2023-04-15T05:44:28.149Z,99043.25
2023-04-15T05:46:58.675Z,99054.22
2023-04-15T05:49:26.950Z,99064.28
2023-04-15T05:51:54.380Z,99063.22
2023-04-15T05:54:22.404Z,99067.63
2023-04-15T05:56:53.009Z,99068.81
2023-04-15T05:59:21.299Z,99072.91
2023-04-15T06:01:48.793Z,99077.78
2023-04-15T06:04:18.331Z,99077.22
2023-04-15T06:06:45.791Z,99076.53
2023-04-15T06:09:13.816Z,99076.16
2023-04-15T06:11:41.296Z,99081.59
2023-04-15T06:14:09.553Z,99082.22
2023-04-15T06:16:37.281Z,99085.19
2023-04-15T06:19:05.089Z,99093.59
2023-04-15T06:21:34.178Z,99092.91
2023-04-15T06:24:02.568Z,99095.50
2023-04-15T06:26:30.096Z,99101.50
2023-04-15T06:28:58.446Z,99101.69
2023-04-15T06:31:25.811Z,99107.31
2023-04-15T06:33:53.732Z,99117.38
2023-04-15T06:36:21.241Z,99113.88
2023-04-15T06:38:50.973Z,99122.06
2023-04-15T06:41:18.605Z,99124.41
2023-04-15T06:43:49.618Z,99127.84
2023-04-15T06:46:17.181Z,99125.41
2023-04-15T06:48:45.295Z,99118.78
2023-04-15T06:51:15.952Z,99115.03
2023-04-15T06:53:43.942Z,99123.13
2023-04-15T06:56:13.067Z,99127.50
2023-04-15T06:58:41.133Z,99127.69
2023-04-15T07:01:08.564Z,99127.59
2023-04-15T07:03:36.890Z,99129.16
2023-04-15T07:06:04.686Z,99137.56
2023-04-15T07:08:32.603Z,99132.22
2023-04-15T07:11:00.212Z,99139.06
2023-04-15T07:13:32.240Z,99147.72
2023-04-15T07:15:59.769Z,99142.19
2023-04-15T07:18:27.598Z,99135.78
2023-04-15T07:20:55.269Z,99150.41
2023-04-15T07:23:23.248Z,99152.28
2023-04-15T07:25:50.838Z,99161.41
2023-04-15T07:28:18.804Z,99159.34
2023-04-15T07:30:47.822Z,99156.84
2023-04-15T07:33:15.947Z,99147.69
2023-04-15T07:35:43.373Z,99148.44
2023-04-15T07:38:11.378Z,99150.78
2023-04-15T07:40:38.935Z,99162.06
2023-04-15T07:43:06.815Z,99162.53
2023-04-15T07:45:34.314Z,99172.88
2023-04-15T07:48:04.114Z,99173.53
2023-04-15T07:50:31.675Z,99170.78
2023-04-15T07:52:59.834Z,99176.22
2023-04-15T07:55:28.289Z,99183.56
2023-04-15T07:57:56.410Z,99186.97
2023-04-15T08:00:24.004Z,99177.97
2023-04-15T08:02:52.624Z,99179.38
2023-04-15T08:05:21.829Z,99186.09
2023-04-15T08:07:49.891Z,99179.63
2023-04-15T08:10:17.864Z,99173.09
2023-04-15T08:12:45.937Z,99179.31
2023-04-15T08:15:13.448Z,99182.25
2023-04-15T08:17:41.367Z,99182.69
2023-04-15T08:20:09.109Z,99187.44
2023-04-15T08:22:38.848Z,99184.16
2023-04-15T08:25:06.632Z,99183.25
2023-04-15T08:27:34.620Z,99183.41
2023-04-15T08:30:04.688Z,99190.53
2023-04-15T08:32:33.058Z,99193.16
2023-04-15T08:35:02.858Z,99193.31
2023-04-15T08:37:31.582Z,99202.09
2023-04-15T08:40:03.894Z,99204.38
2023-04-15T08:42:36.869Z,99205.38
2023-04-15T08:45:05.731Z,99219.94
2023-04-15T08:47:34.998Z,99216.69
2023-04-15T08:50:04.405Z,99201.34
2023-04-15T08:52:32.710Z,99201.25
2023-04-15T08:55:02.259Z,99211.19
2023-04-15T08:57:31.858Z,99222.84
2023-04-15T08:59:59.499Z,99218.66
2023-04-15T09:02:27.796Z,99223.00
2023-04-15T09:04:56.984Z,99220.47
2023-04-15T09:07:25.502Z,99230.44
2023-04-15T09:09:52.905Z,99222.13
2023-04-15T09:12:21.076Z,99236.09
2023-04-15T09:14:50.890Z,99243.47
2023-04-15T09:17:20.270Z,99236.72
2023-04-15T09:19:47.938Z,99241.88
2023-04-15T09:22:15.870Z,99232.72
2023-04-15T09:24:43.139Z,99232.66
2023-04-15T09:27:11.596Z,99233.38
2023-04-15T09:29:41.860Z,99236.28
2023-04-15T09:32:15.539Z,99239.19
2023-04-15T09:34:43.559Z,99225.72
2023-04-15T09:37:11.642Z,99231.75
2023-04-15T09:39:46.829Z,99235.69
2023-04-15T09:42:14.732Z,99232.78
2023-04-15T09:44:42.236Z,99237.78
2023-04-15T09:47:28.253Z,99247.06
2023-04-15T09:49:56.489Z,99242.53
2023-04-15T09:52:24.556Z,99235.47
2023-04-15T09:54:53.722Z,99243.47
2023-04-15T09:57:21.710Z,99252.44
2023-04-15T09:59:49.006Z,99242.47
2023-04-15T10:02:20.858Z,99248.56
2023-04-15T10:04:49.133Z,99262.25
2023-04-15T10:07:17.853Z,99261.41
2023-04-15T10:09:49.266Z,99252.72
2023-04-15T10:12:18.133Z,99262.84
2023-04-15T10:14:51.047Z,99271.78
2023-04-15T10:17:22.604Z,99252.25
2023-04-15T10:19:53.469Z,99259.97
2023-04-15T10:22:22.581Z,99261.84
2023-04-15T10:24:51.580Z,99262.47
2023-04-15T10:27:22.490Z,99262.84
2023-04-15T10:29:53.251Z,99265.56
2023-04-15T10:32:24.238Z,99258.69
2023-04-15T10:34:54.420Z,99262.66
2023-04-15T10:37:33.285Z,99260.56
2023-04-15T10:40:00.886Z,99258.97
2023-04-15T10:42:35.008Z,99263.88
2023-04-15T10:45:16.176Z,99277.31
2023-04-15T10:47:46.148Z,99264.63
2023-04-15T10:50:13.663Z,99264.19
2023-04-15T10:52:41.700Z,99259.50
2023-04-15T10:55:19.545Z,99267.41
2023-04-15T10:57:47.440Z,99266.34
2023-04-15T11:00:17.982Z,99267.69
2023-04-15T11:02:54.798Z,99269.53
2023-04-15T11:05:24.007Z,99274.91
2023-04-15T11:07:54.896Z,99277.19
2023-04-15T11:10:53.166Z,99281.94
2023-04-15T11:13:29.725Z,99285.50
2023-04-15T11:16:01.501Z,99288.78
2023-04-15T11:18:34.894Z,99291.72
2023-04-15T11:21:04.982Z,99294.75
2023-04-15T11:23:36.400Z,99301.41
2023-04-15T11:26:06.533Z,99306.44
2023-04-15T11:28:34.286Z,99306.47
2023-04-15T11:31:07.575Z,99300.84
2023-04-15T11:33:37.050Z,99303.56
2023-04-15T11:36:05.088Z,99305.28
2023-04-15T11:38:34.502Z,99303.66
2023-04-15T11:41:04.527Z,99309.50
2023-04-15T11:43:34.818Z,99311.72
2023-04-15T11:46:03.404Z,99308.66
2023-04-15T11:48:33.201Z,99321.78
2023-04-15T11:51:04.205Z,99320.53
2023-04-15T11:53:40.047Z,99323.03
2023-04-15T11:56:09.438Z,99323.94
2023-04-15T11:58:38.033Z,99315.44
2023-04-15T12:01:06.703Z,99308.41
2023-04-15T12:03:39.245Z,99317.16
2023-04-15T12:06:13.538Z,99315.13
2023-04-15T12:08:58.467Z,99317.13
2023-04-15T12:11:34.463Z,99317.56
2023-04-15T12:14:06.743Z,99320.13
2023-04-15T12:16:37.203Z,99322.69
2023-04-15T12:19:18.059Z,99327.41
2023-04-15T12:21:48.440Z,99333.03
2023-04-15T12:24:21.531Z,99331.41
2023-04-15T12:26:50.292Z,99341.44
2023-04-15T12:29:18.520Z,99333.94
2023-04-15T12:31:51.116Z,99335.19
2023-04-15T12:34:25.971Z,99338.81
2023-04-15T12:36:55.355Z,99342.91
2023-04-15T12:39:24.155Z,99348.22
2023-04-15T12:41:51.634Z,99334.34
2023-04-15T12:44:19.817Z,99339.13
2023-04-15T12:46:47.334Z,99338.88
2023-04-15T12:49:15.060Z,99336.06
2023-04-15T12:51:42.484Z,99340.44
2023-04-15T12:54:11.747Z,99343.00
2023-04-15T12:56:39.174Z,99340.44
2023-04-15T12:59:07.154Z,99339.41
2023-04-15T13:01:34.511Z,99352.00
2023-04-15T13:04:02.434Z,99342.50
2023-04-15T13:06:32.543Z,99344.94
2023-04-15T13:09:00.417Z,99351.88
2023-04-15T13:11:29.958Z,99348.91
2023-04-15T13:13:58.213Z,99355.03
2023-04-15T13:16:25.832Z,99345.91
2023-04-15T13:18:53.563Z,99356.88
2023-04-15T13:21:21.325Z,99353.84
2023-04-15T13:23:49.489Z,99351.97
2023-04-15T13:26:17.271Z,99347.72
2023-04-15T13:28:46.675Z,99354.53
2023-04-15T13:31:14.230Z,99345.25
2023-04-15T13:33:41.982Z,99354.34
2023-04-15T13:36:09.946Z,99364.50
2023-04-15T13:38:37.645Z,99354.31
2023-04-15T13:41:08.098Z,99363.31
2023-04-15T13:43:36.016Z,99356.72
2023-04-15T13:46:05.003Z,99367.84
2023-04-15T13:48:33.277Z,99359.06
2023-04-15T13:51:03.046Z,99363.28
2023-04-15T13:53:38.187Z,99354.44
2023-04-15T13:56:07.550Z,99356.28
2023-04-15T13:58:36.061Z,99361.75
2023-04-15T14:01:06.303Z,99352.31
2023-04-15T14:03:35.223Z,99364.91
2023-04-15T14:06:02.903Z,99360.13
2023-04-15T14:08:30.853Z,99358.13
2023-04-15T14:10:58.362Z,99353.28
2023-04-15T14:13:26.742Z,99361.41
2023-04-15T14:15:54.457Z,99361.56
2023-04-15T14:18:23.878Z,99357.75
2023-04-15T14:20:51.423Z,99359.91
2023-04-15T14:23:19.368Z,99360.00
2023-04-15T14:25:48.382Z,99358.13
2023-04-15T14:28:16.585Z,99361.47
2023-04-15T14:30:44.095Z,99359.25
2023-04-15T14:33:12.344Z,99361.78
2023-04-15T14:35:41.425Z,99370.06
2023-04-15T14:38:09.369Z,99373.63
2023-04-15T14:40:36.845Z,99376.66
2023-04-15T14:43:04.665Z,99374.28
2023-04-15T14:45:32.075Z,99374.72
2023-04-15T14:48:00.396Z,99385.75
2023-04-15T14:50:28.221Z,99378.28
2023-04-15T14:52:57.535Z,99388.19
2023-04-15T14:55:25.189Z,99392.69
2023-04-15T14:57:53.062Z,99395.88
2023-04-15T15:00:20.549Z,99398.84
2023-04-15T15:02:48.441Z,99394.84
2023-04-15T15:05:16.470Z,99401.56
2023-04-15T15:07:44.636Z,99397.75
2023-04-15T15:10:13.773Z,99399.50
2023-04-15T15:12:41.513Z,99409.59
2023-04-15T15:15:19.595Z,99412.78
2023-04-15T15:17:56.295Z,99412.25
2023-04-15T15:20:24.111Z,99416.66
2023-04-15T15:22:52.258Z,99413.22
2023-04-15T15:25:21.143Z,99421.38
2023-04-15T15:27:49.067Z,99426.69
2023-04-15T15:30:16.581Z,99426.41
2023-04-15T15:32:44.541Z,99433.91
2023-04-15T15:35:11.979Z,99428.16
2023-04-15T15:37:40.827Z,99429.56
2023-04-15T15:40:09.619Z,99429.50
2023-04-15T15:42:39.008Z,99428.53
2023-04-15T15:45:07.251Z,99425.31
2023-04-15T15:47:35.813Z,99431.59
2023-04-15T15:50:05.569Z,99437.38
2023-04-15T15:52:34.087Z,99438.97
2023-04-15T15:55:01.683Z,99428.88
2023-04-15T15:57:29.441Z,99437.16
2023-04-15T16:00:10.197Z,99441.72
2023-04-15T16:05:10.293Z,99445.63
2023-04-15T16:07:38.075Z,99448.72
2023-04-15T16:10:06.574Z,99457.31
2023-04-15T16:12:35.032Z,99450.94
2023-04-15T16:15:04.497Z,99453.91
2023-04-15T16:17:33.207Z,99456.97
2023-04-15T16:20:01.511Z,99458.63
2023-04-15T16:22:29.681Z,99455.59
2023-04-15T16:24:57.246Z,99461.63
2023-04-15T16:27:24.949Z,99465.75
2023-04-15T16:29:52.310Z,99464.34
2023-04-15T16:32:21.866Z,99466.88
2023-04-15T16:34:49.350Z,99472.56
2023-04-15T16:37:17.426Z,99471.91
2023-04-15T16:39:44.739Z,99471.41
2023-04-15T16:42:12.644Z,99472.22
2023-04-15T16:44:40.001Z,99469.78
2023-04-15T16:47:08.311Z,99478.78
2023-04-15T16:49:37.076Z,99487.75
2023-04-15T16:52:04.832Z,99486.78
2023-04-15T16:54:32.253Z,99495.53
2023-04-15T16:57:00.133Z,99504.75
2023-04-15T16:59:27.575Z,99500.13
2023-04-15T17:01:55.451Z,99506.50
2023-04-15T17:04:23.264Z,99506.63
2023-04-15T17:06:52.640Z,99504.59
2023-04-15T17:09:20.248Z,99503.47
2023-04-15T17:11:48.656Z,99509.41
2023-04-15T17:14:16.223Z,99511.56
2023-04-15T17:16:44.222Z,99514.56
2023-04-15T17:19:11.853Z,99527.59
2023-04-15T17:21:39.765Z,99525.22
2023-04-15T17:24:08.484Z,99531.94
2023-04-15T17:26:36.335Z,99535.25
2023-04-15T17:29:04.217Z,99533.72
2023-04-15T17:31:32.281Z,99542.53
2023-04-15T17:34:09.119Z,99543.16
2023-04-15T17:36:38.073Z,99546.31
2023-04-15T17:39:05.935Z,99552.38
2023-04-15T17:41:35.458Z,99552.88
2023-04-15T17:46:30.954Z,99551.31
2023-04-15T17:48:58.358Z,99554.66
2023-04-15T17:51:26.124Z,99560.13
2023-04-15T17:53:53.461Z,99579.75
2023-04-15T17:56:21.314Z,99575.84
2023-04-15T17:58:50.232Z,99579.38
2023-04-15T18:01:18.017Z,99582.69
2023-04-15T18:03:45.451Z,99586.88
2023-04-15T18:06:16.108Z,99594.34
2023-04-15T18:08:43.605Z,99600.16
2023-04-15T18:11:11.679Z,99613.03
2023-04-15T18:13:39.040Z,99619.69
2023-04-15T18:16:08.574Z,99626.13
2023-04-15T18:18:38.698Z,99621.56
2023-04-15T18:21:06.588Z,99631.50
2023-04-15T18:23:34.155Z,99638.56
2023-04-15T18:26:01.960Z,99637.50
2023-04-15T18:28:30.686Z,99635.94
2023-04-15T18:30:58.527Z,99639.66
2023-04-15T18:33:27.566Z,99643.78
2023-04-15T18:35:55.738Z,99642.25
2023-04-15T18:38:23.798Z,99647.41
2023-04-15T18:40:52.240Z,99647.91
2023-04-15T18:43:19.773Z,99655.84
2023-04-15T18:45:47.696Z,99660.03
2023-04-15T18:48:15.162Z,99665.19
2023-04-15T18:50:44.552Z,99669.78
2023-04-15T18:53:12.050Z,99659.13
2023-04-15T18:55:40.473Z,99666.19
2023-04-15T18:58:09.179Z,99667.22
2023-04-15T19:00:37.225Z,99679.13
2023-04-15T19:03:04.847Z,99681.69
2023-04-15T19:05:32.998Z,99680.88
2023-04-15T19:08:02.094Z,99689.97
2023-04-15T19:10:30.081Z,99682.91
2023-04-15T19:12:57.549Z,99686.16
2023-04-15T19:15:26.279Z,99691.56
2023-04-15T19:17:53.680Z,99691.56
2023-04-15T19:20:23.014Z,99688.16
2023-04-15T19:22:50.468Z,99696.72
2023-04-15T19:25:20.388Z,99700.56
2023-04-15T19:27:47.947Z,99698.56
2023-04-15T19:30:15.854Z,99707.97
2023-04-15T19:32:43.292Z,99710.84
2023-04-15T19:35:11.732Z,99707.06
2023-04-15T19:37:39.180Z,99714.25
2023-04-15T19:40:08.419Z,99706.16
2023-04-15T19:42:37.358Z,99714.25
2023-04-15T19:45:06.150Z,99717.34
2023-04-15T19:47:34.211Z,99715.47
2023-04-15T19:50:02.296Z,99727.72
2023-04-15T19:52:29.789Z,99722.03
2023-04-15T19:54:57.652Z,99727.63
2023-04-15T19:57:25.216Z,99731.53
2023-04-15T19:59:54.659Z,99728.97
2023-04-15T20:02:22.269Z,99737.94
2023-04-15T20:04:50.377Z,99739.03
2023-04-15T20:07:17.708Z,99744.25
2023-04-15T20:09:46.976Z,99739.03
2023-04-15T20:12:50.221Z,99740.41
2023-04-15T20:15:07.778Z,99739.97
2023-04-15T20:17:36.197Z,99744.44
2023-04-15T20:20:04.500Z,99745.78
2023-04-15T20:22:32.398Z,99749.53
2023-04-15T20:25:01.225Z,99753.03
2023-04-15T20:27:28.858Z,99750.34
2023-04-15T20:29:56.641Z,99756.56
2023-04-15T20:32:25.798Z,99752.72
2023-04-15T20:34:53.724Z,99760.34
2023-04-15T20:37:21.184Z,99771.53
2023-04-15T20:39:49.205Z,99765.81
2023-04-15T20:42:17.837Z,99768.59
2023-04-15T20:44:45.688Z,99762.91
2023-04-15T20:47:13.289Z,99766.59
2023-04-15T20:49:42.869Z,99770.75
2023-04-15T20:52:10.512Z,99766.81
2023-04-15T20:54:38.617Z,99765.84
2023-04-15T20:57:06.091Z,99767.75
2023-04-15T20:59:33.782Z,99771.78
2023-04-15T21:02:01.527Z,99781.88
2023-04-15T21:04:29.412Z,99778.19
2023-04-15T21:06:58.307Z,99776.22
2023-04-15T21:09:25.988Z,99783.94
2023-04-15T21:12:01.090Z,99789.22
2023-04-15T21:14:29.911Z,99791.72
2023-04-15T21:16:57.744Z,99795.44
2023-04-15T21:19:25.567Z,99800.97
2023-04-15T21:21:53.105Z,99806.22
2023-04-15T21:24:22.457Z,99807.22
2023-04-15T21:26:49.993Z,99807.56
2023-04-15T21:29:17.842Z,99797.19
2023-04-15T21:31:45.399Z,99806.22
2023-04-15T21:34:13.335Z,99809.28
2023-04-15T21:36:40.690Z,99816.16
2023-04-15T21:39:08.555Z,99808.84
2023-04-15T21:41:37.639Z,99816.63
2023-04-15T21:44:05.806Z,99819.19
2023-04-15T21:46:35.517Z,99819.09
2023-04-15T21:49:04.287Z,99825.88
2023-04-15T21:51:31.936Z,99818.00
2023-04-15T21:53:59.881Z,99825.50
2023-04-15T21:56:27.179Z,99832.38
2023-04-15T21:58:57.500Z,99838.28
2023-04-15T22:01:25.101Z,99837.75
2023-04-15T22:03:54.963Z,99832.16
2023-04-15T22:06:22.671Z,99833.56
2023-04-15T22:08:56.850Z,99844.03
2023-04-15T22:11:25.569Z,99843.75
2023-04-15T22:13:53.250Z,99851.69
2023-04-15T22:16:22.069Z,99850.16
2023-04-15T22:18:50.046Z,99853.13
2023-04-15T22:21:17.411Z,99856.28
2023-04-15T22:23:46.666Z,99858.50
2023-04-15T22:26:15.107Z,99862.44
2023-04-15T22:28:43.015Z,99863.28
2023-04-15T22:31:10.453Z,99860.16
2023-04-15T22:33:39.746Z,99863.09
2023-04-15T22:36:07.168Z,99869.63
2023-04-15T22:38:35.146Z,99863.53
2023-04-15T22:41:02.515Z,99868.41
2023-04-15T22:43:30.252Z,99866.59
2023-04-15T22:45:57.602Z,99867.16
2023-04-15T22:48:25.510Z,99860.84
2023-04-15T22:50:54.630Z,99861.03
2023-04-15T22:53:22.344Z,99865.59
2023-04-15T22:55:49.818Z,99874.31
2023-04-15T22:58:17.874Z,99881.69
2023-04-15T23:00:45.373Z,99886.06
2023-04-15T23:03:13.299Z,99888.38
2023-04-15T23:05:41.110Z,99890.59
2023-04-15T23:08:10.414Z,99889.75
2023-04-15T23:10:37.758Z,99898.94
2023-04-15T23:13:05.655Z,99893.94
2023-04-15T23:15:33.044Z,99903.00
2023-04-15T23:18:00.787Z,99907.00
2023-04-15T23:20:28.254Z,99899.94
2023-04-15T23:22:56.109Z,99902.31
2023-04-15T23:25:25.046Z,99899.63
2023-04-15T23:27:52.739Z,99899.13
2023-04-15T23:30:20.152Z,99901.63
2023-04-15T23:32:48.011Z,99905.47
2023-04-15T23:35:16.145Z,99900.06
2023-04-15T23:37:44.445Z,99895.22
2023-04-15T23:40:12.908Z,99899.38
2023-04-15T23:42:42.215Z,99905.56
2023-04-15T23:45:10.523Z,99900.75
2023-04-15T23:47:38.618Z,99912.13
2023-04-15T23:50:07.360Z,99901.91
2023-04-15T23:52:35.353Z,99907.47
2023-04-15T23:55:02.753Z,99901.03
2023-04-15T23:57:30.509Z,99909.50
2023-04-15T23:59:59.345Z,99907.97
